Ottertail, Minnesota
Current Conditions -  °F | °C
As of 1:53 AM on Friday 31 Oct 2014 (Local Time) from KADC Reporting Station
Clear Clear  
Wind Chill: -10°   Ceiling: Unl
Heat Index: -5°   Visibility: 10mi
Dew Point: -8°   Wind: 7mph
Humidity: 80%   Direction: 330°NNW
Pressure: 30.5"   Gusts: NA
Location:  46.43°N, 95.56°W
Report Text: KADC 310653Z AUTO 33006KT 10SM CLR M05/M08 A3050 RMK AO2
Loading
Personal Weather Stations






























Interactive Weather Map
Tropical Storm Tracking
New forecast layout! Learn more

10-Day Weather Forecast

Advertisements
Track Severe Weather on mobile